sensor_id;sensor_type;location;lat;lon;timestamp;noise_LAeq;noise_LA_min;noise_LA_max;noise_LA01;noise_LA95
80864;Laerm;70936;51.680;5.974;2023-10-09T00:03:01;29.08;28.33;29.75;;
80864;Laerm;70936;51.680;5.974;2023-10-09T00:07:00;29.2;28.36;32.22;;
80864;Laerm;70936;51.680;5.974;2023-10-09T00:11:01;29.26;28.38;30.92;;
80864;Laerm;70936;51.680;5.974;2023-10-09T00:15:00;29.16;28.34;31.8;;
80864;Laerm;70936;51.680;5.974;2023-10-09T00:19:01;29.13;28.35;31.36;;
80864;Laerm;70936;51.680;5.974;2023-10-09T00:23:00;29.12;28.36;31.11;;
80864;Laerm;70936;51.680;5.974;2023-10-09T00:27:00;29.09;28.36;30.37;;
80864;Laerm;70936;51.680;5.974;2023-10-09T00:31:02;29.11;28.26;39.7;;
80864;Laerm;70936;51.680;5.974;2023-10-09T00:35:00;29.31;28.48;30.16;;
80864;Laerm;70936;51.680;5.974;2023-10-09T00:39:00;29.66;28.35;40.88;;
80864;Laerm;70936;51.680;5.974;2023-10-09T00:43:01;29.09;28.36;31.52;;
80864;Laerm;70936;51.680;5.974;2023-10-09T00:47:00;29.16;28.4;34.32;;
80864;Laerm;70936;51.680;5.974;2023-10-09T00:51:00;29.08;28.31;29.89;;
80864;Laerm;70936;51.680;5.974;2023-10-09T00:55:00;29.21;28.38;32.51;;
80864;Laerm;70936;51.680;5.974;2023-10-09T00:59:00;29.2;28.38;31.5;;
80864;Laerm;70936;51.680;5.974;2023-10-09T01:03:01;29.08;28.25;29.95;;
80864;Laerm;70936;51.680;5.974;2023-10-09T01:07:00;29.08;28.37;29.84;;
80864;Laerm;70936;51.680;5.974;2023-10-09T01:11:00;29.08;28.31;29.86;;
80864;Laerm;70936;51.680;5.974;2023-10-09T01:15:00;29.08;28.26;31.03;;
80864;Laerm;70936;51.680;5.974;2023-10-09T01:19:00;29.19;28.45;34.03;;
80864;Laerm;70936;51.680;5.974;2023-10-09T01:23:00;29.29;28.23;37.61;;
80864;Laerm;70936;51.680;5.974;2023-10-09T01:27:00;29.08;28.38;29.84;;
80864;Laerm;70936;51.680;5.974;2023-10-09T01:31:01;29.08;28.26;30.48;;
80864;Laerm;70936;51.680;5.974;2023-10-09T01:35:00;29.09;28.25;29.85;;
80864;Laerm;70936;51.680;5.974;2023-10-09T01:39:01;29.28;28.44;31.36;;
80864;Laerm;70936;51.680;5.974;2023-10-09T01:43:00;29.08;28.33;29.75;;
80864;Laerm;70936;51.680;5.974;2023-10-09T01:47:01;29.08;28.29;29.81;;
80864;Laerm;70936;51.680;5.974;2023-10-09T01:51:01;29.47;28.2;38.4;;
80864;Laerm;70936;51.680;5.974;2023-10-09T01:55:00;29.15;28.17;33.64;;
80864;Laerm;70936;51.680;5.974;2023-10-09T01:59:00;29.09;28.35;29.75;;
80864;Laerm;70936;51.680;5.974;2023-10-09T02:03:00;29.2;28.41;32.81;;
80864;Laerm;70936;51.680;5.974;2023-10-09T02:07:00;29.26;28.42;31.17;;
80864;Laerm;70936;51.680;5.974;2023-10-09T02:11:00;29.15;28.45;32.84;;
80864;Laerm;70936;51.680;5.974;2023-10-09T02:15:00;29.1;28.2;31.14;;
80864;Laerm;70936;51.680;5.974;2023-10-09T02:19:00;29.14;28.25;34.06;;
80864;Laerm;70936;51.680;5.974;2023-10-09T02:23:00;29.56;28.3;40.84;;
80864;Laerm;70936;51.680;5.974;2023-10-09T02:27:00;29.26;28.35;36.98;;
80864;Laerm;70936;51.680;5.974;2023-10-09T02:31:01;29.69;28.33;39.59;;
80864;Laerm;70936;51.680;5.974;2023-10-09T02:35:00;29.12;28.25;31.08;;
80864;Laerm;70936;51.680;5.974;2023-10-09T02:39:00;29.19;28.33;33.26;;
80864;Laerm;70936;51.680;5.974;2023-10-09T02:43:01;29.17;28.45;30.33;;
80864;Laerm;70936;51.680;5.974;2023-10-09T02:47:01;29.96;28.46;40.33;;
80864;Laerm;70936;51.680;5.974;2023-10-09T02:51:00;29.83;28.47;40.74;;
80864;Laerm;70936;51.680;5.974;2023-10-09T02:55:00;29.23;28.5;32.92;;
80864;Laerm;70936;51.680;5.974;2023-10-09T02:59:00;29.4;28.58;32.42;;
80864;Laerm;70936;51.680;5.974;2023-10-09T03:03:00;29.39;28.41;31.45;;
80864;Laerm;70936;51.680;5.974;2023-10-09T03:07:00;29.19;28.5;32.73;;
80864;Laerm;70936;51.680;5.974;2023-10-09T03:11:00;29.88;28.35;42.46;;
80864;Laerm;70936;51.680;5.974;2023-10-09T03:15:00;29.36;28.39;34.2;;
80864;Laerm;70936;51.680;5.974;2023-10-09T03:19:00;29.85;28.47;37.55;;
80864;Laerm;70936;51.680;5.974;2023-10-09T03:23:00;29.38;28.42;36.81;;
80864;Laerm;70936;51.680;5.974;2023-10-09T03:27:00;29.47;28.27;35.88;;
80864;Laerm;70936;51.680;5.974;2023-10-09T03:31:00;29.34;28.38;35.79;;
80864;Laerm;70936;51.680;5.974;2023-10-09T03:35:00;29.65;28.67;32.35;;
80864;Laerm;70936;51.680;5.974;2023-10-09T03:39:00;30.59;28.51;40.05;;
80864;Laerm;70936;51.680;5.974;2023-10-09T03:43:00;29.54;28.53;36.32;;
80864;Laerm;70936;51.680;5.974;2023-10-09T03:47:00;29.89;28.57;36.54;;
80864;Laerm;70936;51.680;5.974;2023-10-09T03:51:00;31.23;28.6;42.49;;
80864;Laerm;70936;51.680;5.974;2023-10-09T03:55:00;30.38;28.65;39.6;;
80864;Laerm;70936;51.680;5.974;2023-10-09T03:59:01;29.42;28.45;36.38;;
80864;Laerm;70936;51.680;5.974;2023-10-09T04:03:00;30.67;28.41;44.78;;
80864;Laerm;70936;51.680;5.974;2023-10-09T04:07:00;31.23;28.63;40.37;;
80864;Laerm;70936;51.680;5.974;2023-10-09T04:11:00;33.4;29.65;45.88;;
80864;Laerm;70936;51.680;5.974;2023-10-09T04:15:00;33.64;28.82;45.94;;
80864;Laerm;70936;51.680;5.974;2023-10-09T04:19:01;30.4;28.58;40.48;;
80864;Laerm;70936;51.680;5.974;2023-10-09T04:23:00;31.07;28.48;42.45;;
80864;Laerm;70936;51.680;5.974;2023-10-09T04:27:00;30.71;28.54;43.05;;
80864;Laerm;70936;51.680;5.974;2023-10-09T04:31:01;30.8;28.56;45.86;;
80864;Laerm;70936;51.680;5.974;2023-10-09T04:35:00;31.45;28.46;47.23;;
80864;Laerm;70936;51.680;5.974;2023-10-09T04:39:01;46.5;28.7;77.46;;
80864;Laerm;70936;51.680;5.974;2023-10-09T04:43:00;36.69;28.94;62.13;;
80864;Laerm;70936;51.680;5.974;2023-10-09T04:47:01;38.66;28.79;63.21;;
80864;Laerm;70936;51.680;5.974;2023-10-09T04:51:01;43.39;28.78;70.1;;
80864;Laerm;70936;51.680;5.974;2023-10-09T04:55:00;48.47;28.85;69.92;;
80864;Laerm;70936;51.680;5.974;2023-10-09T04:59:01;45.23;29.05;71.76;;
80864;Laerm;70936;51.680;5.974;2023-10-09T05:03:01;45.05;28.96;70.81;;
80864;Laerm;70936;51.680;5.974;2023-10-09T05:07:00;47.59;29.02;72.45;;
80864;Laerm;70936;51.680;5.974;2023-10-09T05:11:01;49.15;28.77;73.13;;
80864;Laerm;70936;51.680;5.974;2023-10-09T05:15:00;50.1;28.94;79.99;;
80864;Laerm;70936;51.680;5.974;2023-10-09T05:19:01;45.42;28.98;72.19;;
80864;Laerm;70936;51.680;5.974;2023-10-09T05:23:00;50.38;28.91;74.2;;
80864;Laerm;70936;51.680;5.974;2023-10-09T05:27:01;47.38;29.83;62.43;;
80864;Laerm;70936;51.680;5.974;2023-10-09T05:31:01;46.23;28.88;70.44;;
80864;Laerm;70936;51.680;5.974;2023-10-09T05:35:00;42.22;28.91;67.65;;
80864;Laerm;70936;51.680;5.974;2023-10-09T05:39:01;39.06;28.37;61.65;;
80864;Laerm;70936;51.680;5.974;2023-10-09T05:43:00;34.24;28.85;53.97;;
80864;Laerm;70936;51.680;5.974;2023-10-09T05:47:01;39.66;29.7;66.76;;
80864;Laerm;70936;51.680;5.974;2023-10-09T05:51:01;32.26;29.4;41;;
80864;Laerm;70936;51.680;5.974;2023-10-09T05:55:00;32.16;29.12;42.55;;
80864;Laerm;70936;51.680;5.974;2023-10-09T05:59:01;39.54;29.55;66.46;;
80864;Laerm;70936;51.680;5.974;2023-10-09T06:03:00;45.65;29.7;73.68;;
80864;Laerm;70936;51.680;5.974;2023-10-09T06:07:01;45.85;30.6;73.94;;
80864;Laerm;70936;51.680;5.974;2023-10-09T06:11:01;47.45;31.54;73.43;;
80864;Laerm;70936;51.680;5.974;2023-10-09T06:15:01;43.18;34.33;72.69;;
80864;Laerm;70936;51.680;5.974;2023-10-09T06:19:01;44.39;33.96;73.36;;
80864;Laerm;70936;51.680;5.974;2023-10-09T06:23:00;37.17;29.79;59.71;;
80864;Laerm;70936;51.680;5.974;2023-10-09T06:27:01;35.43;28.9;60.42;;
80864;Laerm;70936;51.680;5.974;2023-10-09T06:31:00;32.59;28.78;46.54;;
80864;Laerm;70936;51.680;5.974;2023-10-09T06:35:01;33.28;28.64;56.29;;
80864;Laerm;70936;51.680;5.974;2023-10-09T06:39:01;30.32;28.62;38.23;;
80864;Laerm;70936;51.680;5.974;2023-10-09T06:43:01;39.61;28.83;65.28;;
80864;Laerm;70936;51.680;5.974;2023-10-09T06:47:01;47.84;28.75;77.97;;
80864;Laerm;70936;51.680;5.974;2023-10-09T06:51:02;32.29;28.75;46.73;;
80864;Laerm;70936;51.680;5.974;2023-10-09T06:55:00;46.55;28.74;72.96;;
80864;Laerm;70936;51.680;5.974;2023-10-09T06:59:01;38.44;28.71;67.75;;
80864;Laerm;70936;51.680;5.974;2023-10-09T07:03:00;39.65;28.74;64.32;;
80864;Laerm;70936;51.680;5.974;2023-10-09T07:07:01;36.01;28.57;63.59;;
80864;Laerm;70936;51.680;5.974;2023-10-09T07:11:00;37.19;28.55;60.98;;
80864;Laerm;70936;51.680;5.974;2023-10-09T07:15:01;37.17;28.63;67.56;;
80864;Laerm;70936;51.680;5.974;2023-10-09T07:19:01;39.45;28.82;64.18;;
80864;Laerm;70936;51.680;5.974;2023-10-09T07:23:01;43.41;28.63;73.49;;
80864;Laerm;70936;51.680;5.974;2023-10-09T07:27:00;44.51;28.53;72.92;;
80864;Laerm;70936;51.680;5.974;2023-10-09T07:31:00;30.67;28.52;40.6;;
80864;Laerm;70936;51.680;5.974;2023-10-09T07:35:01;30.74;28.56;41.97;;
80864;Laerm;70936;51.680;5.974;2023-10-09T07:39:01;32.51;28.53;47.55;;
80864;Laerm;70936;51.680;5.974;2023-10-09T07:43:00;30.46;28.29;38.31;;
80864;Laerm;70936;51.680;5.974;2023-10-09T07:47:01;32.33;28.75;45.04;;
80864;Laerm;70936;51.680;5.974;2023-10-09T07:51:00;30.54;28.59;40.96;;
80864;Laerm;70936;51.680;5.974;2023-10-09T07:55:01;31.42;28.55;50.4;;
80864;Laerm;70936;51.680;5.974;2023-10-09T07:59:01;32.31;28.84;47.93;;
80864;Laerm;70936;51.680;5.974;2023-10-09T08:03:01;30.9;28.64;41.26;;
80864;Laerm;70936;51.680;5.974;2023-10-09T08:07:01;31.48;28.56;41.29;;
80864;Laerm;70936;51.680;5.974;2023-10-09T08:11:01;32.17;28.54;44.55;;
80864;Laerm;70936;51.680;5.974;2023-10-09T08:15:01;32.01;28.68;44.22;;
80864;Laerm;70936;51.680;5.974;2023-10-09T08:19:01;44.02;28.73;75.16;;
80864;Laerm;70936;51.680;5.974;2023-10-09T08:23:00;44.35;28.56;66.07;;
80864;Laerm;70936;51.680;5.974;2023-10-09T08:27:01;43.67;28.73;63.58;;
80864;Laerm;70936;51.680;5.974;2023-10-09T08:31:01;34.7;28.63;57.74;;
80864;Laerm;70936;51.680;5.974;2023-10-09T08:35:01;39.44;28.63;64.29;;
80864;Laerm;70936;51.680;5.974;2023-10-09T08:39:01;43.54;28.7;69.51;;
80864;Laerm;70936;51.680;5.974;2023-10-09T08:43:02;42.87;28.84;70.77;;
80864;Laerm;70936;51.680;5.974;2023-10-09T08:47:01;31.33;28.68;40.43;;
80864;Laerm;70936;51.680;5.974;2023-10-09T08:51:01;32.8;29.08;45.16;;
80864;Laerm;70936;51.680;5.974;2023-10-09T08:55:01;40.82;28.92;68.83;;
80864;Laerm;70936;51.680;5.974;2023-10-09T08:59:01;40.02;28.9;64.7;;
80864;Laerm;70936;51.680;5.974;2023-10-09T09:03:00;37.64;28.85;62.88;;
80864;Laerm;70936;51.680;5.974;2023-10-09T09:07:01;43.07;28.82;66.36;;
80864;Laerm;70936;51.680;5.974;2023-10-09T09:11:01;38.44;28.6;65.92;;
80864;Laerm;70936;51.680;5.974;2023-10-09T09:15:00;37.04;29.15;58.47;;
80864;Laerm;70936;51.680;5.974;2023-10-09T09:19:01;36.63;29.07;57.29;;
80864;Laerm;70936;51.680;5.974;2023-10-09T09:23:01;44.24;28.82;71.13;;
80864;Laerm;70936;51.680;5.974;2023-10-09T09:27:02;31.61;28.75;47.71;;
80864;Laerm;70936;51.680;5.974;2023-10-09T09:31:06;33.34;28.87;47.2;;
80864;Laerm;70936;51.680;5.974;2023-10-09T09:35:01;40.66;29.06;67.62;;
80864;Laerm;70936;51.680;5.974;2023-10-09T09:39:01;48.59;28.91;72.2;;
80864;Laerm;70936;51.680;5.974;2023-10-09T09:43:01;40.44;28.87;68.52;;
80864;Laerm;70936;51.680;5.974;2023-10-09T09:47:01;31.63;28.65;43.04;;
80864;Laerm;70936;51.680;5.974;2023-10-09T09:51:01;31.63;28.73;45.67;;
80864;Laerm;70936;51.680;5.974;2023-10-09T09:55:01;32.25;28.67;56.36;;
80864;Laerm;70936;51.680;5.974;2023-10-09T09:59:01;44.37;28.75;72.97;;
80864;Laerm;70936;51.680;5.974;2023-10-09T10:03:01;30.32;28.64;38.91;;
80864;Laerm;70936;51.680;5.974;2023-10-09T10:07:01;31.11;28.59;40.76;;
80864;Laerm;70936;51.680;5.974;2023-10-09T10:11:01;32.64;28.91;45.72;;
80864;Laerm;70936;51.680;5.974;2023-10-09T10:15:01;31.94;28.62;44.18;;
80864;Laerm;70936;51.680;5.974;2023-10-09T10:19:01;31.04;28.69;44.57;;
80864;Laerm;70936;51.680;5.974;2023-10-09T10:23:16;30.86;28.57;40.39;;
80864;Laerm;70936;51.680;5.974;2023-10-09T10:27:16;31.02;28.79;44.32;;
80864;Laerm;70936;51.680;5.974;2023-10-09T10:35:01;31.22;28.43;40.21;;
80864;Laerm;70936;51.680;5.974;2023-10-09T10:39:01;30.76;28.76;43.91;;
80864;Laerm;70936;51.680;5.974;2023-10-09T10:43:01;31.09;28.65;44.22;;
80864;Laerm;70936;51.680;5.974;2023-10-09T10:47:01;30.53;28.74;39.57;;
80864;Laerm;70936;51.680;5.974;2023-10-09T10:51:01;29.95;28.6;35.91;;
80864;Laerm;70936;51.680;5.974;2023-10-09T10:55:08;33.18;28.46;55.22;;
80864;Laerm;70936;51.680;5.974;2023-10-09T10:59:01;30.85;28.7;40.97;;
80864;Laerm;70936;51.680;5.974;2023-10-09T11:03:01;35.11;28.75;58.32;;
80864;Laerm;70936;51.680;5.974;2023-10-09T11:07:01;38.56;28.68;63.71;;
80864;Laerm;70936;51.680;5.974;2023-10-09T11:11:16;39.17;28.8;63.18;;
80864;Laerm;70936;51.680;5.974;2023-10-09T11:15:01;41.11;28.72;66.21;;
80864;Laerm;70936;51.680;5.974;2023-10-09T11:19:01;33.18;28.94;52.01;;
80864;Laerm;70936;51.680;5.974;2023-10-09T11:23:01;31.09;28.69;43.47;;
80864;Laerm;70936;51.680;5.974;2023-10-09T11:27:01;35.71;28.71;63.76;;
80864;Laerm;70936;51.680;5.974;2023-10-09T11:31:08;34.83;28.65;59.16;;
80864;Laerm;70936;51.680;5.974;2023-10-09T11:35:11;42.59;28.75;68.1;;
80864;Laerm;70936;51.680;5.974;2023-10-09T11:39:01;32.39;28.75;54.8;;
80864;Laerm;70936;51.680;5.974;2023-10-09T11:43:01;31.93;28.79;41.48;;
80864;Laerm;70936;51.680;5.974;2023-10-09T11:47:01;47.95;29;68.2;;
80864;Laerm;70936;51.680;5.974;2023-10-09T11:51:01;44.17;29.17;65.98;;
80864;Laerm;70936;51.680;5.974;2023-10-09T11:55:01;33.51;29.03;45.98;;
80864;Laerm;70936;51.680;5.974;2023-10-09T11:59:01;34.7;28.89;46.66;;
80864;Laerm;70936;51.680;5.974;2023-10-09T12:03:01;33.47;29.25;44.95;;
80864;Laerm;70936;51.680;5.974;2023-10-09T12:07:01;32.53;28.94;43.8;;
80864;Laerm;70936;51.680;5.974;2023-10-09T12:11:01;33.77;29.03;45.95;;
80864;Laerm;70936;51.680;5.974;2023-10-09T12:15:01;34.55;29.05;48.7;;
80864;Laerm;70936;51.680;5.974;2023-10-09T12:19:01;41.73;28.61;65.42;;
80864;Laerm;70936;51.680;5.974;2023-10-09T12:23:01;46.62;29.37;71.07;;
80864;Laerm;70936;51.680;5.974;2023-10-09T12:27:01;42.84;28.73;67.16;;
80864;Laerm;70936;51.680;5.974;2023-10-09T12:31:01;40.36;28.95;63.6;;
80864;Laerm;70936;51.680;5.974;2023-10-09T12:35:01;34;28.91;50.98;;
80864;Laerm;70936;51.680;5.974;2023-10-09T12:39:01;37.83;28.85;65.33;;
80864;Laerm;70936;51.680;5.974;2023-10-09T12:43:01;45.57;29.22;76.14;;
80864;Laerm;70936;51.680;5.974;2023-10-09T12:47:01;32.22;29;42.83;;
80864;Laerm;70936;51.680;5.974;2023-10-09T12:51:01;33.33;28.73;48.41;;
80864;Laerm;70936;51.680;5.974;2023-10-09T12:55:01;34.11;28.84;51.76;;
80864;Laerm;70936;51.680;5.974;2023-10-09T12:59:01;33.25;28.95;45.61;;
80864;Laerm;70936;51.680;5.974;2023-10-09T13:03:01;33.25;28.84;44.76;;
80864;Laerm;70936;51.680;5.974;2023-10-09T13:07:01;35.27;28.9;55.74;;
80864;Laerm;70936;51.680;5.974;2023-10-09T13:11:02;36.15;29;59.93;;
80864;Laerm;70936;51.680;5.974;2023-10-09T13:15:01;44.28;28.73;72.58;;
80864;Laerm;70936;51.680;5.974;2023-10-09T13:19:01;53.1;28.73;82.4;;
80864;Laerm;70936;51.680;5.974;2023-10-09T13:23:01;47.64;28.83;74.01;;
80864;Laerm;70936;51.680;5.974;2023-10-09T13:27:01;31.57;28.75;49.83;;
80864;Laerm;70936;51.680;5.974;2023-10-09T13:31:01;34.08;28.94;57.69;;
80864;Laerm;70936;51.680;5.974;2023-10-09T13:35:01;33.12;28.87;49.74;;
80864;Laerm;70936;51.680;5.974;2023-10-09T13:39:01;33.51;28.94;44.88;;
80864;Laerm;70936;51.680;5.974;2023-10-09T13:43:01;34.08;28.83;56.18;;
80864;Laerm;70936;51.680;5.974;2023-10-09T13:47:01;36.27;28.91;64.74;;
80864;Laerm;70936;51.680;5.974;2023-10-09T13:51:01;33.53;29.11;52.08;;
80864;Laerm;70936;51.680;5.974;2023-10-09T13:55:01;32.7;28.85;48.11;;
80864;Laerm;70936;51.680;5.974;2023-10-09T13:59:01;32.07;28.8;41.01;;
80864;Laerm;70936;51.680;5.974;2023-10-09T14:03:01;33.38;28.93;44.08;;
80864;Laerm;70936;51.680;5.974;2023-10-09T14:07:01;32.34;28.82;46.15;;
80864;Laerm;70936;51.680;5.974;2023-10-09T14:11:01;34.23;29.11;48.79;;
80864;Laerm;70936;51.680;5.974;2023-10-09T14:15:01;32.31;28.96;41.74;;
80864;Laerm;70936;51.680;5.974;2023-10-09T14:19:01;32.92;29.13;43.01;;
80864;Laerm;70936;51.680;5.974;2023-10-09T14:23:01;43.11;28.93;65.75;;
80864;Laerm;70936;51.680;5.974;2023-10-09T14:27:01;47.42;29.59;68.33;;
80864;Laerm;70936;51.680;5.974;2023-10-09T14:31:01;44.24;28.94;63.88;;
80864;Laerm;70936;51.680;5.974;2023-10-09T14:35:01;44.3;28.93;64.26;;
80864;Laerm;70936;51.680;5.974;2023-10-09T14:39:01;49.79;29.76;65.83;;
80864;Laerm;70936;51.680;5.974;2023-10-09T14:43:01;46.63;34.53;67.06;;
80864;Laerm;70936;51.680;5.974;2023-10-09T14:47:01;52.16;35.95;72.8;;
80864;Laerm;70936;51.680;5.974;2023-10-09T14:51:01;47.09;36.06;68.36;;
80864;Laerm;70936;51.680;5.974;2023-10-09T14:55:01;41.11;34.98;60.69;;
80864;Laerm;70936;51.680;5.974;2023-10-09T14:59:01;38.41;33.22;57.22;;
80864;Laerm;70936;51.680;5.974;2023-10-09T15:03:01;50.82;29.85;77.5;;
80864;Laerm;70936;51.680;5.974;2023-10-09T15:07:01;51.4;29.4;73.71;;
80864;Laerm;70936;51.680;5.974;2023-10-09T15:11:01;49.34;29.21;71.25;;
80864;Laerm;70936;51.680;5.974;2023-10-09T15:15:01;50.87;29.19;73.21;;
80864;Laerm;70936;51.680;5.974;2023-10-09T15:19:01;54.12;29.27;74.13;;
80864;Laerm;70936;51.680;5.974;2023-10-09T15:23:01;49.7;29.03;74.15;;
80864;Laerm;70936;51.680;5.974;2023-10-09T15:27:01;56.27;29.06;77.35;;
80864;Laerm;70936;51.680;5.974;2023-10-09T15:31:01;50.59;28.95;74.14;;
80864;Laerm;70936;51.680;5.974;2023-10-09T15:35:01;49.23;28.88;70.66;;
80864;Laerm;70936;51.680;5.974;2023-10-09T15:39:01;50.72;28.97;73.33;;
80864;Laerm;70936;51.680;5.974;2023-10-09T15:43:01;51.45;29.16;73.68;;
80864;Laerm;70936;51.680;5.974;2023-10-09T15:47:01;51.27;29.03;72.68;;
80864;Laerm;70936;51.680;5.974;2023-10-09T15:51:01;50.87;29.14;78.31;;
80864;Laerm;70936;51.680;5.974;2023-10-09T15:55:01;42.96;29.2;68.44;;
80864;Laerm;70936;51.680;5.974;2023-10-09T15:59:01;44.1;28.73;64.82;;
80864;Laerm;70936;51.680;5.974;2023-10-09T16:03:01;39.93;28.83;65.18;;
80864;Laerm;70936;51.680;5.974;2023-10-09T16:07:01;39.76;28.67;65.3;;
80864;Laerm;70936;51.680;5.974;2023-10-09T16:11:01;31.27;28.7;47.4;;
80864;Laerm;70936;51.680;5.974;2023-10-09T16:15:01;31.22;28.53;44.09;;
80864;Laerm;70936;51.680;5.974;2023-10-09T16:19:01;36.87;28.93;59.96;;
80864;Laerm;70936;51.680;5.974;2023-10-09T16:23:01;32.61;28.82;46.02;;
80864;Laerm;70936;51.680;5.974;2023-10-09T16:27:01;32.63;28.61;47.45;;
80864;Laerm;70936;51.680;5.974;2023-10-09T16:31:01;43.09;28.63;73.3;;
80864;Laerm;70936;51.680;5.974;2023-10-09T16:35:01;33.87;28.75;48.85;;
80864;Laerm;70936;51.680;5.974;2023-10-09T16:39:01;34.1;28.62;52.28;;
80864;Laerm;70936;51.680;5.974;2023-10-09T16:43:01;33.66;28.64;53.19;;
80864;Laerm;70936;51.680;5.974;2023-10-09T16:47:01;32.2;28.68;49.43;;
80864;Laerm;70936;51.680;5.974;2023-10-09T16:51:01;31.95;29;44.24;;
80864;Laerm;70936;51.680;5.974;2023-10-09T16:55:01;42.6;28.48;63.77;;
80864;Laerm;70936;51.680;5.974;2023-10-09T16:59:01;50.57;28.94;68.95;;
80864;Laerm;70936;51.680;5.974;2023-10-09T17:03:01;32.61;28.95;47.56;;
80864;Laerm;70936;51.680;5.974;2023-10-09T17:07:01;34.38;29.12;53.24;;
80864;Laerm;70936;51.680;5.974;2023-10-09T17:11:01;31.35;28.65;43.55;;
80864;Laerm;70936;51.680;5.974;2023-10-09T17:15:01;33.48;28.66;49.68;;
80864;Laerm;70936;51.680;5.974;2023-10-09T17:19:01;39.17;28.46;62.37;;
80864;Laerm;70936;51.680;5.974;2023-10-09T17:23:01;35.85;28.82;53.04;;
80864;Laerm;70936;51.680;5.974;2023-10-09T17:27:01;35.06;28.72;52.45;;
80864;Laerm;70936;51.680;5.974;2023-10-09T17:31:01;35.76;28.68;50.33;;
80864;Laerm;70936;51.680;5.974;2023-10-09T17:35:01;35.99;28.61;50.27;;
80864;Laerm;70936;51.680;5.974;2023-10-09T17:39:01;36.21;28.69;59.72;;
80864;Laerm;70936;51.680;5.974;2023-10-09T17:43:01;32.45;28.68;46.61;;
80864;Laerm;70936;51.680;5.974;2023-10-09T17:47:01;32;28.68;48.35;;
80864;Laerm;70936;51.680;5.974;2023-10-09T17:51:01;39.52;28.7;68.17;;
80864;Laerm;70936;51.680;5.974;2023-10-09T17:55:01;32.58;28.63;47.52;;
80864;Laerm;70936;51.680;5.974;2023-10-09T17:59:01;39.12;28.4;63.91;;
80864;Laerm;70936;51.680;5.974;2023-10-09T18:03:01;30.06;28.47;41.58;;
80864;Laerm;70936;51.680;5.974;2023-10-09T18:07:01;29.93;28.55;40.73;;
80864;Laerm;70936;51.680;5.974;2023-10-09T18:11:01;29.75;28.25;37.81;;
80864;Laerm;70936;51.680;5.974;2023-10-09T18:15:01;29.54;28.41;34.77;;
80864;Laerm;70936;51.680;5.974;2023-10-09T18:19:01;29.4;28.37;33.54;;
80864;Laerm;70936;51.680;5.974;2023-10-09T18:23:01;30.86;28.55;48.61;;
80864;Laerm;70936;51.680;5.974;2023-10-09T18:27:01;29.58;28.65;34.13;;
80864;Laerm;70936;51.680;5.974;2023-10-09T18:31:01;30.35;28.59;49.08;;
80864;Laerm;70936;51.680;5.974;2023-10-09T18:35:01;32.3;28.59;47.41;;
80864;Laerm;70936;51.680;5.974;2023-10-09T18:39:01;33.08;28.95;42.4;;
80864;Laerm;70936;51.680;5.974;2023-10-09T18:43:01;33.52;28.98;44.24;;
80864;Laerm;70936;51.680;5.974;2023-10-09T18:47:01;32.64;28.91;43.02;;
80864;Laerm;70936;51.680;5.974;2023-10-09T18:51:01;32.17;28.54;40.48;;
80864;Laerm;70936;51.680;5.974;2023-10-09T18:55:01;31.88;28.64;43.1;;
80864;Laerm;70936;51.680;5.974;2023-10-09T18:59:01;36.45;28.69;59.22;;
80864;Laerm;70936;51.680;5.974;2023-10-09T19:03:01;35.24;28.95;62.22;;
80864;Laerm;70936;51.680;5.974;2023-10-09T19:07:01;32.28;28.79;44.38;;
80864;Laerm;70936;51.680;5.974;2023-10-09T19:11:01;32.18;28.7;39.82;;
80864;Laerm;70936;51.680;5.974;2023-10-09T19:15:01;32.02;28.74;40.32;;
80864;Laerm;70936;51.680;5.974;2023-10-09T19:19:01;31.9;28.89;41.22;;
80864;Laerm;70936;51.680;5.974;2023-10-09T19:23:01;33.05;28.61;52.42;;
80864;Laerm;70936;51.680;5.974;2023-10-09T19:27:01;32.02;28.58;42.92;;
80864;Laerm;70936;51.680;5.974;2023-10-09T19:31:02;41.15;28.66;70.13;;
80864;Laerm;70936;51.680;5.974;2023-10-09T19:35:01;40.71;28.65;61.92;;
80864;Laerm;70936;51.680;5.974;2023-10-09T19:39:01;29.92;28.44;39.3;;
80864;Laerm;70936;51.680;5.974;2023-10-09T19:43:01;29.76;28.51;48.67;;
80864;Laerm;70936;51.680;5.974;2023-10-09T19:47:01;29.58;28.22;35.93;;
80864;Laerm;70936;51.680;5.974;2023-10-09T19:51:01;29.58;28.46;35.39;;
80864;Laerm;70936;51.680;5.974;2023-10-09T19:55:01;30.74;28.46;59.55;;
80864;Laerm;70936;51.680;5.974;2023-10-09T19:59:01;29.27;28.41;34.52;;
80864;Laerm;70936;51.680;5.974;2023-10-09T20:03:01;30.24;28.37;38.72;;
80864;Laerm;70936;51.680;5.974;2023-10-09T20:07:01;29.74;28.34;37.7;;
80864;Laerm;70936;51.680;5.974;2023-10-09T20:11:04;30.64;28.4;44.85;;
80864;Laerm;70936;51.680;5.974;2023-10-09T20:15:01;29.51;28.38;34.47;;
80864;Laerm;70936;51.680;5.974;2023-10-09T20:19:01;29.45;28.44;35.04;;
80864;Laerm;70936;51.680;5.974;2023-10-09T20:23:01;29.37;28.26;34.15;;
80864;Laerm;70936;51.680;5.974;2023-10-09T20:27:01;29.17;28.4;34.27;;
80864;Laerm;70936;51.680;5.974;2023-10-09T20:31:01;29.24;28.41;32.33;;
80864;Laerm;70936;51.680;5.974;2023-10-09T20:35:01;30.17;28.34;40.48;;
80864;Laerm;70936;51.680;5.974;2023-10-09T20:39:01;29.61;28.46;38.79;;
80864;Laerm;70936;51.680;5.974;2023-10-09T20:43:01;29.38;28.41;35.3;;
80864;Laerm;70936;51.680;5.974;2023-10-09T20:47:01;29.2;28.34;34.97;;
80864;Laerm;70936;51.680;5.974;2023-10-09T20:51:02;29.35;28.33;35.31;;
80864;Laerm;70936;51.680;5.974;2023-10-09T20:55:01;29.21;28.17;33.15;;
80864;Laerm;70936;51.680;5.974;2023-10-09T20:59:01;29.15;28.31;33.61;;
80864;Laerm;70936;51.680;5.974;2023-10-09T21:03:01;29.39;28.4;38.19;;
80864;Laerm;70936;51.680;5.974;2023-10-09T21:07:01;29.21;28.21;35.95;;
80864;Laerm;70936;51.680;5.974;2023-10-09T21:11:01;29.27;28.48;33.25;;
80864;Laerm;70936;51.680;5.974;2023-10-09T21:15:01;29.23;28.24;34.17;;
80864;Laerm;70936;51.680;5.974;2023-10-09T21:19:01;30.49;28.3;43.74;;
80864;Laerm;70936;51.680;5.974;2023-10-09T21:23:01;29.25;28.18;35.7;;
80864;Laerm;70936;51.680;5.974;2023-10-09T21:27:01;29.18;28.33;33.01;;
80864;Laerm;70936;51.680;5.974;2023-10-09T21:31:01;29.19;28.34;31.94;;
80864;Laerm;70936;51.680;5.974;2023-10-09T21:35:01;29.11;28.38;31.25;;
80864;Laerm;70936;51.680;5.974;2023-10-09T21:39:01;29.27;28.29;36.88;;
80864;Laerm;70936;51.680;5.974;2023-10-09T21:43:01;29.11;28.29;31.76;;
80864;Laerm;70936;51.680;5.974;2023-10-09T21:47:01;29.16;28.36;36.04;;
80864;Laerm;70936;51.680;5.974;2023-10-09T21:51:01;29.52;28.48;37.17;;
80864;Laerm;70936;51.680;5.974;2023-10-09T21:55:01;29.1;28.18;33.39;;
80864;Laerm;70936;51.680;5.974;2023-10-09T21:59:01;29.09;28.43;31.06;;
80864;Laerm;70936;51.680;5.974;2023-10-09T22:03:01;29.07;28.26;29.76;;
80864;Laerm;70936;51.680;5.974;2023-10-09T22:07:01;29.42;28.36;36.64;;
80864;Laerm;70936;51.680;5.974;2023-10-09T22:11:01;29.42;28.27;37.52;;
80864;Laerm;70936;51.680;5.974;2023-10-09T22:15:01;29.55;28.44;40.15;;
80864;Laerm;70936;51.680;5.974;2023-10-09T22:19:01;29.19;28.34;33.95;;
80864;Laerm;70936;51.680;5.974;2023-10-09T22:23:01;29.11;28.37;33.97;;
80864;Laerm;70936;51.680;5.974;2023-10-09T22:27:01;29.08;28.26;29.8;;
80864;Laerm;70936;51.680;5.974;2023-10-09T22:31:01;30.46;28.46;56.28;;
80864;Laerm;70936;51.680;5.974;2023-10-09T22:35:01;29.96;28.25;39.96;;